createdAt,value
2018-07-07T00:00:43.178Z,39.33
2018-07-07T00:01:43.108Z,39.43
2018-07-07T00:02:43.132Z,39.72
2018-07-07T00:03:43.152Z,39.81
2018-07-07T00:04:43.141Z,40.01
2018-07-07T00:05:43.326Z,40.49
2018-07-07T00:06:43.178Z,40.97
2018-07-07T00:07:43.181Z,41.16
2018-07-07T00:08:43.226Z,41.16
2018-07-07T00:09:43.214Z,41.45
2018-07-07T00:10:43.358Z,41.55
2018-07-07T00:11:43.266Z,41.74
2018-07-07T00:12:43.256Z,41.83
2018-07-07T00:13:43.267Z,42.22
2018-07-07T00:14:43.296Z,42.12
2018-07-07T00:15:43.474Z,42.80
2018-07-07T00:16:43.310Z,42.80
2018-07-07T00:17:43.353Z,43.18
2018-07-07T00:18:43.340Z,42.30
2018-07-07T00:19:43.361Z,41.91
2018-07-07T00:20:43.484Z,42.20
2018-07-07T00:21:43.391Z,42.39
2018-07-07T00:22:43.396Z,42.58
2018-07-07T00:23:43.431Z,42.97
2018-07-07T00:24:43.436Z,43.07
2018-07-07T00:25:43.598Z,42.97
2018-07-07T00:26:43.485Z,44.68
2018-07-07T00:27:43.474Z,44.68
2018-07-07T00:28:43.514Z,45.64
2018-07-07T00:29:43.504Z,45.06
2018-07-07T00:30:43.667Z,44.96
2018-07-07T00:31:43.557Z,45.54
2018-07-07T00:32:43.563Z,45.54
2018-07-07T00:33:43.577Z,46.21
2018-07-07T00:34:43.585Z,45.73
2018-07-07T00:35:43.689Z,45.54
2018-07-07T00:36:43.629Z,46.41
2018-07-07T00:37:43.624Z,46.31
2018-07-07T00:38:43.662Z,46.31
2018-07-07T00:39:43.672Z,46.89
2018-07-07T00:40:43.806Z,47.17
2018-07-07T00:41:43.680Z,47.75
2018-07-07T00:42:43.689Z,47.56
2018-07-07T00:43:43.704Z,48.71
2018-07-07T00:44:43.716Z,48.81
2018-07-07T00:45:43.730Z,48.81
2018-07-07T00:46:43.904Z,47.85
2018-07-07T00:47:43.760Z,47.27
2018-07-07T00:48:43.800Z,48.90
2018-07-07T00:49:43.786Z,48.71
2018-07-07T00:50:43.798Z,48.33
2018-07-07T00:51:43.827Z,47.85
2018-07-07T00:52:43.932Z,48.04
2018-07-07T00:53:43.876Z,48.30
2018-07-07T00:54:43.872Z,50.15
2018-07-07T00:55:43.873Z,51.31
2018-07-07T00:56:43.890Z,50.82
2018-07-07T00:57:44.076Z,50.82
2018-07-07T00:58:43.918Z,50.03
2018-07-07T00:59:43.930Z,52.34
2018-07-07T01:00:43.970Z,52.62
2018-07-07T01:01:43.972Z,51.57
2018-07-07T01:02:44.122Z,51.09
2018-07-07T01:03:43.984Z,51.67
2018-07-07T01:04:44.010Z,51.18
2018-07-07T01:05:44.014Z,52.43
2018-07-07T01:06:44.031Z,52.91
2018-07-07T01:07:44.042Z,52.24
2018-07-07T01:08:44.054Z,53.78
2018-07-07T01:09:44.073Z,52.34
2018-07-07T01:10:44.086Z,52.62
2018-07-07T01:11:44.104Z,52.72
2018-07-07T01:12:44.118Z,54.16
2018-07-07T01:13:44.133Z,53.01
2018-07-07T01:14:44.146Z,53.11
2018-07-07T01:15:44.177Z,53.30
2018-07-07T01:16:44.168Z,53.20
2018-07-07T01:17:44.315Z,54.16
2018-07-07T01:18:44.196Z,54.93
2018-07-07T01:19:44.209Z,55.51
2018-07-07T01:20:44.249Z,55.79
2018-07-07T01:21:44.238Z,56.05
2018-07-07T01:22:44.257Z,55.67
2018-07-07T01:23:44.275Z,55.86
2018-07-07T01:24:44.286Z,56.05
2018-07-07T01:25:44.305Z,56.44
2018-07-07T01:26:44.330Z,56.53
2018-07-07T01:27:44.321Z,56.63
2018-07-07T01:28:44.335Z,57.68
2018-07-07T01:29:44.351Z,57.59
2018-07-07T01:30:44.388Z,58.55
2018-07-07T01:31:44.373Z,57.59
2018-07-07T01:32:44.421Z,56.24
2018-07-07T01:33:44.435Z,55.86
2018-07-07T01:34:44.418Z,55.96
2018-07-07T01:35:44.430Z,56.53
2018-07-07T01:36:44.472Z,58.26
2018-07-07T01:37:44.641Z,56.82
2018-07-07T01:38:44.466Z,57.01
2018-07-07T01:39:44.513Z,58.36
2018-07-07T01:40:44.500Z,59.03
2018-07-07T01:41:44.528Z,60.08
2018-07-07T01:42:44.701Z,59.99
2018-07-07T01:43:44.570Z,59.41
2018-07-07T01:44:44.560Z,59.70
2018-07-07T01:45:44.569Z,59.41
2018-07-07T01:46:44.592Z,58.17
2018-07-07T01:47:44.778Z,58.36
2018-07-07T01:48:44.705Z,58.36
2018-07-07T01:49:44.664Z,60.38
2018-07-07T01:50:44.656Z,61.72
2018-07-07T01:51:44.654Z,61.43
2018-07-07T01:52:44.767Z,59.80
2018-07-07T01:53:44.706Z,59.89
2018-07-07T01:54:44.698Z,59.99
2018-07-07T01:55:44.704Z,61.14
2018-07-07T01:56:44.720Z,61.33
2018-07-07T01:57:44.831Z,61.81
2018-07-07T01:58:44.755Z,62.58
2018-07-07T01:59:44.784Z,62.96
2018-07-07T02:00:44.774Z,63.45
2018-07-07T02:01:44.788Z,63.79
2018-07-07T02:02:44.925Z,62.93
2018-07-07T02:03:44.828Z,63.03
2018-07-07T02:04:44.834Z,62.55
2018-07-07T02:05:44.875Z,61.21
2018-07-07T02:06:44.854Z,59.96
2018-07-07T02:07:45.032Z,59.77
2018-07-07T02:08:44.913Z,59.96
2018-07-07T02:09:44.895Z,60.44
2018-07-07T02:10:44.932Z,61.08
2018-07-07T02:11:44.936Z,60.92
2018-07-07T02:12:45.113Z,60.05
2018-07-07T02:13:44.960Z,60.05
2018-07-07T02:14:44.989Z,59.77
2018-07-07T02:15:44.977Z,59.93
2018-07-07T02:16:45.020Z,61.27
2018-07-07T02:17:45.167Z,62.13
2018-07-07T02:18:45.082Z,62.90
2018-07-07T02:19:45.031Z,63.57
2018-07-07T02:20:45.053Z,65.88
2018-07-07T02:21:45.054Z,66.83
2018-07-07T02:22:45.196Z,66.93
2018-07-07T02:23:45.081Z,65.59
2018-07-07T02:24:45.096Z,64.53
2018-07-07T02:25:45.115Z,64.63
2018-07-07T02:26:45.117Z,67.02
2018-07-07T02:27:45.263Z,65.49
2018-07-07T02:28:45.179Z,64.82
2018-07-07T02:29:45.166Z,64.25
2018-07-07T02:30:45.203Z,65.46
2018-07-07T02:31:45.202Z,67.18
2018-07-07T02:32:45.303Z,67.22
2018-07-07T02:33:45.250Z,67.85
2018-07-07T02:34:45.229Z,67.76
2018-07-07T02:35:45.239Z,69.87
2018-07-07T02:36:45.266Z,71.50
2018-07-07T02:37:45.443Z,71.78
2018-07-07T02:38:45.284Z,73.51
2018-07-07T02:39:45.319Z,76.10
2018-07-07T02:40:45.322Z,78.49
2018-07-07T02:41:45.333Z,77.25
2018-07-07T02:42:45.358Z,74.85
2018-07-07T02:43:45.352Z,73.22
2018-07-07T02:44:45.365Z,72.45
2018-07-07T02:45:45.374Z,75.23
2018-07-07T02:46:45.389Z,76.19
2018-07-07T02:47:45.404Z,75.52
2018-07-07T02:48:45.410Z,75.62
2018-07-07T02:49:45.431Z,75.23
2018-07-07T02:50:45.448Z,74.08
2018-07-07T02:51:45.482Z,74.08
2018-07-07T02:52:45.491Z,78.02
2018-07-07T02:53:45.505Z,78.97
2018-07-07T02:54:45.507Z,74.66
2018-07-07T02:55:45.526Z,73.51
2018-07-07T02:56:45.543Z,73.22
2018-07-07T02:57:45.534Z,73.66
2018-07-07T02:58:45.538Z,75.10
2018-07-07T02:59:45.551Z,76.35
2018-07-07T03:00:45.565Z,76.54
2018-07-07T03:01:45.594Z,78.55
2018-07-07T03:02:45.604Z,82.81
2018-07-07T03:03:45.608Z,82.14
2018-07-07T03:04:45.623Z,82.81
2018-07-07T03:05:45.641Z,82.23
2018-07-07T03:06:45.670Z,82.32
2018-07-07T03:07:45.694Z,81.66
2018-07-07T03:08:45.679Z,82.14
2018-07-07T03:09:45.689Z,80.41
2018-07-07T03:10:45.692Z,80.51
2018-07-07T03:11:45.733Z,80.89
2018-07-07T03:12:45.726Z,80.70
2018-07-07T03:13:45.739Z,81.08
2018-07-07T03:14:45.773Z,80.79
2018-07-07T03:15:45.784Z,80.22
2018-07-07T03:16:45.770Z,80.12
2018-07-07T03:17:45.882Z,79.83
2018-07-07T03:18:45.796Z,80.22
2018-07-07T03:19:45.839Z,80.41
2018-07-07T03:20:45.817Z,79.83
2018-07-07T03:21:45.862Z,80.03
2018-07-07T03:22:45.873Z,79.64
2018-07-07T03:23:45.863Z,79.26
2018-07-07T03:24:45.887Z,79.07
2018-07-07T03:25:45.884Z,79.55
2018-07-07T03:26:45.904Z,79.83
2018-07-07T03:27:46.025Z,80.12
2018-07-07T03:28:45.934Z,79.74
2018-07-07T03:29:45.938Z,78.88
2018-07-07T03:30:45.945Z,79.55
2018-07-07T03:31:45.961Z,79.83
2018-07-07T03:32:45.976Z,79.64
2018-07-07T03:33:45.986Z,79.83
2018-07-07T03:34:45.998Z,80.22
2018-07-07T03:35:46.007Z,81.18
2018-07-07T03:36:46.035Z,81.81
2018-07-07T03:37:46.042Z,82.42
2018-07-07T03:38:46.052Z,82.57
2018-07-07T03:39:46.065Z,82.76
2018-07-07T03:40:46.078Z,82.67
2018-07-07T03:41:46.121Z,82.38
2018-07-07T03:42:46.094Z,82.48
2018-07-07T03:43:46.115Z,83.15
2018-07-07T03:44:46.128Z,83.05
2018-07-07T03:45:46.167Z,82.76
2018-07-07T03:46:46.152Z,82.67
2018-07-07T03:47:46.173Z,83.25
2018-07-07T03:48:46.191Z,83.05
2018-07-07T03:49:46.216Z,83.72
2018-07-07T03:50:46.205Z,83.92
2018-07-07T03:51:46.243Z,84.97
2018-07-07T03:52:46.236Z,85.45
2018-07-07T03:53:46.266Z,85.74
2018-07-07T03:54:46.251Z,85.25
2018-07-07T03:55:46.266Z,85.93
2018-07-07T03:56:46.304Z,87.17
2018-07-07T03:57:46.302Z,87.55
2018-07-07T03:58:46.300Z,88.23
2018-07-07T03:59:46.343Z,88.32
2018-07-07T04:00:46.329Z,88.99
2018-07-07T04:01:46.339Z,88.95
2018-07-07T04:02:46.363Z,88.90
2018-07-07T04:03:46.393Z,89.43
2018-07-07T04:04:46.380Z,89.66
2018-07-07T04:05:46.392Z,89.52
2018-07-07T04:06:46.430Z,89.62
2018-07-07T04:07:46.421Z,89.62
2018-07-07T04:08:46.424Z,89.33
2018-07-07T04:09:46.438Z,89.04
2018-07-07T04:10:46.458Z,89.23
2018-07-07T04:11:46.461Z,89.62
2018-07-07T04:12:46.499Z,89.81
2018-07-07T04:13:46.490Z,90.48
2018-07-07T04:14:46.503Z,91.05
2018-07-07T04:15:46.528Z,91.44
2018-07-07T04:16:46.555Z,92.40
2018-07-07T04:18:46.581Z,93.07
2018-07-07T04:19:46.569Z,93.74
2018-07-07T04:20:46.590Z,94.02
2018-07-07T04:21:46.584Z,93.74
2018-07-07T04:22:46.624Z,94.31
2018-07-07T04:23:46.616Z,95.27
2018-07-07T04:24:46.621Z,95.94
2018-07-07T04:25:46.660Z,96.70
2018-07-07T04:26:46.674Z,96.61
2018-07-07T04:27:46.666Z,97.09
2018-07-07T04:28:46.669Z,96.61
2018-07-07T04:29:46.681Z,96.89
2018-07-07T04:30:46.697Z,96.89
2018-07-07T04:31:46.714Z,97.47
2018-07-07T04:32:46.730Z,97.28
2018-07-07T04:33:46.747Z,97.28
2018-07-07T04:34:46.741Z,98.14
2018-07-07T04:35:46.788Z,98.33
2018-07-07T04:36:46.795Z,98.33
2018-07-07T04:37:46.795Z,97.09
2018-07-07T04:38:46.816Z,96.89
2018-07-07T04:39:46.809Z,97.47
2018-07-07T04:40:46.823Z,98.24
2018-07-07T04:41:46.841Z,98.71
2018-07-07T04:42:46.833Z,99.58
2018-07-07T04:43:46.865Z,99.99
2018-07-07T04:44:46.886Z,99.99
2018-07-07T04:45:46.909Z,99.99
2018-07-07T04:46:46.912Z,99.99
2018-07-07T04:47:47.053Z,99.99
2018-07-07T04:48:46.920Z,99.99
2018-07-07T04:49:46.924Z,99.99
2018-07-07T04:50:46.936Z,99.99
2018-07-07T04:51:46.948Z,99.99
2018-07-07T04:52:47.113Z,99.99
2018-07-07T04:53:46.972Z,99.99
2018-07-07T04:54:46.989Z,99.99
2018-07-07T04:55:47.024Z,99.99
2018-07-07T04:56:47.008Z,99.99
2018-07-07T04:57:47.179Z,99.99
2018-07-07T04:58:47.035Z,99.99
2018-07-07T04:59:47.047Z,99.99
2018-07-07T05:00:47.058Z,99.99
2018-07-07T05:01:47.078Z,99.58
2018-07-07T05:02:47.198Z,99.67
2018-07-07T05:03:47.104Z,99.67
2018-07-07T05:04:47.110Z,99.99
2018-07-07T05:05:47.150Z,99.99
2018-07-07T05:06:47.140Z,99.99
2018-07-07T05:07:47.296Z,99.99
2018-07-07T05:08:47.185Z,99.99
2018-07-07T05:09:47.176Z,99.99
2018-07-07T05:10:47.211Z,99.99
2018-07-07T05:11:47.223Z,99.99
2018-07-07T05:12:47.317Z,99.99
2018-07-07T05:13:47.221Z,99.99
2018-07-07T05:14:47.232Z,99.99
2018-07-07T05:15:47.247Z,99.99
2018-07-07T05:16:47.288Z,99.99
2018-07-07T05:17:47.434Z,99.99
2018-07-07T05:18:47.285Z,99.99
2018-07-07T05:19:47.294Z,99.99
2018-07-07T05:20:47.303Z,99.87
2018-07-07T05:21:47.348Z,99.29
2018-07-07T05:22:47.459Z,99.48
2018-07-07T05:23:47.357Z,99.29
2018-07-07T05:24:47.355Z,99.38
2018-07-07T05:25:47.367Z,99.48
2018-07-07T05:26:47.381Z,99.38
2018-07-07T05:27:47.521Z,99.29
2018-07-07T05:28:47.406Z,99.00
2018-07-07T05:29:47.447Z,98.81
2018-07-07T05:30:47.430Z,98.81
2018-07-07T05:31:47.530Z,98.86
2018-07-07T05:32:47.580Z,98.10
2018-07-07T05:33:47.499Z,97.80
2018-07-07T05:34:47.477Z,97.33
2018-07-07T05:35:47.525Z,97.80
2018-07-07T05:36:47.532Z,96.94
2018-07-07T05:37:47.631Z,97.33
2018-07-07T05:38:47.542Z,96.75
2018-07-07T05:39:47.568Z,96.94
2018-07-07T05:40:47.586Z,96.56
2018-07-07T05:41:47.564Z,96.75
2018-07-07T05:42:47.735Z,96.66
2018-07-07T05:43:47.623Z,96.47
2018-07-07T05:44:47.630Z,96.18
2018-07-07T05:45:47.620Z,96.18
2018-07-07T05:46:47.661Z,95.79
2018-07-07T05:47:47.676Z,95.60
2018-07-07T05:48:47.780Z,94.93
2018-07-07T05:49:47.681Z,95.22
2018-07-07T05:50:47.682Z,94.55
2018-07-07T05:51:47.706Z,94.45
2018-07-07T05:52:47.728Z,94.17
2018-07-07T05:53:47.724Z,93.98
2018-07-07T05:54:47.825Z,93.69
2018-07-07T05:55:47.741Z,94.07
2018-07-07T05:56:47.765Z,93.40
2018-07-07T05:57:47.777Z,92.92
2018-07-07T05:58:47.791Z,93.21
2018-07-07T05:59:47.952Z,93.49
2018-07-07T06:00:47.801Z,93.21
2018-07-07T06:01:47.813Z,93.49
2018-07-07T06:02:47.852Z,93.30
2018-07-07T06:03:47.850Z,92.82
2018-07-07T06:04:47.980Z,93.30
2018-07-07T06:05:47.898Z,93.49
2018-07-07T06:06:47.904Z,93.02
2018-07-07T06:07:47.896Z,93.11
2018-07-07T06:08:47.900Z,93.30
2018-07-07T06:09:48.048Z,93.88
2018-07-07T06:10:47.923Z,94.07
2018-07-07T06:11:47.958Z,93.40
2018-07-07T06:12:47.952Z,93.40
2018-07-07T06:13:47.967Z,93.40
2018-07-07T06:14:48.134Z,93.30
2018-07-07T06:15:47.988Z,93.40
2018-07-07T06:16:48.011Z,93.21
2018-07-07T06:17:48.014Z,93.11
2018-07-07T06:18:48.029Z,93.40
2018-07-07T06:19:48.197Z,93.78
2018-07-07T06:20:48.076Z,93.88
2018-07-07T06:21:48.105Z,93.59
2018-07-07T06:22:48.080Z,93.88
2018-07-07T06:23:48.093Z,93.69
2018-07-07T06:24:48.279Z,93.40
2018-07-07T06:25:48.120Z,93.78
2018-07-07T06:26:48.172Z,93.40
2018-07-07T06:27:48.166Z,93.59
2018-07-07T06:28:48.148Z,93.88
2018-07-07T06:29:48.271Z,93.78
2018-07-07T06:30:48.203Z,93.59
2018-07-07T06:31:48.190Z,93.78
2018-07-07T06:32:48.234Z,93.88
2018-07-07T06:33:48.215Z,93.69
2018-07-07T06:34:48.376Z,93.69
2018-07-07T06:35:48.238Z,93.69
2018-07-07T06:36:48.278Z,94.26
2018-07-07T06:37:48.266Z,93.69
2018-07-07T06:38:48.287Z,93.98
2018-07-07T06:39:48.459Z,93.69
2018-07-07T06:40:48.330Z,93.69
2018-07-07T06:41:48.315Z,94.07
2018-07-07T06:42:48.326Z,93.98
2018-07-07T06:43:48.366Z,94.26
2018-07-07T06:44:48.524Z,94.35
2018-07-07T06:45:48.374Z,94.35
2018-07-07T06:46:48.378Z,94.93
2018-07-07T06:47:48.406Z,94.93
2018-07-07T06:48:48.432Z,94.84
2018-07-07T06:49:48.596Z,95.12
2018-07-07T06:50:48.425Z,95.51
2018-07-07T06:51:48.464Z,95.41
2018-07-07T06:52:48.456Z,95.31
2018-07-07T06:53:48.556Z,95.98
2018-07-07T06:54:48.624Z,95.89
2018-07-07T06:55:48.490Z,96.08
2018-07-07T06:56:48.501Z,95.98
2018-07-07T06:57:48.514Z,96.18
2018-07-07T06:58:48.539Z,97.04
2018-07-07T06:59:48.641Z,96.84
2018-07-07T07:00:48.550Z,96.84
2018-07-07T07:01:48.586Z,96.27
2018-07-07T07:02:48.605Z,96.75
2018-07-07T07:03:48.587Z,96.27
2018-07-07T07:04:48.781Z,96.66
2018-07-07T07:05:48.608Z,96.66
2018-07-07T07:06:48.624Z,96.56
2018-07-07T07:07:48.633Z,96.75
2018-07-07T07:08:48.642Z,96.75
2018-07-07T07:09:48.658Z,96.56
2018-07-07T07:10:48.769Z,96.75
2018-07-07T07:11:48.699Z,96.37
2018-07-07T07:12:48.722Z,96.56
2018-07-07T07:13:48.723Z,96.47
2018-07-07T07:14:48.755Z,96.84
2018-07-07T07:15:48.890Z,97.33
2018-07-07T07:16:48.748Z,97.33
2018-07-07T07:17:48.783Z,96.94
2018-07-07T07:18:48.798Z,97.61
2018-07-07T07:19:48.812Z,97.33
2018-07-07T07:20:48.910Z,97.23
2018-07-07T07:21:48.826Z,97.14
2018-07-07T07:22:48.835Z,97.90
2018-07-07T07:23:48.831Z,97.61
2018-07-07T07:24:48.843Z,97.23
2018-07-07T07:25:49.035Z,97.52
2018-07-07T07:26:48.876Z,97.71
2018-07-07T07:27:48.879Z,97.61
2018-07-07T07:28:48.893Z,97.61
2018-07-07T07:29:48.930Z,97.71
2018-07-07T07:30:49.092Z,97.61
2018-07-07T07:31:48.955Z,97.71
2018-07-07T07:32:48.944Z,97.04
2018-07-07T07:33:48.980Z,96.75
2018-07-07T07:34:48.979Z,96.75
2018-07-07T07:35:49.109Z,96.56
2018-07-07T07:36:49.091Z,96.84
2018-07-07T07:37:49.036Z,96.66
2018-07-07T07:38:49.046Z,96.08
2018-07-07T07:39:49.036Z,95.98
2018-07-07T07:40:49.215Z,95.79
2018-07-07T07:41:49.088Z,95.79
2018-07-07T07:42:49.094Z,95.22
2018-07-07T07:43:49.080Z,95.41
2018-07-07T07:44:49.118Z,95.51
2018-07-07T07:45:49.202Z,95.60
2018-07-07T07:46:49.119Z,95.31
2018-07-07T07:47:49.126Z,95.70
2018-07-07T07:48:49.144Z,95.89
2018-07-07T07:49:49.159Z,95.70
2018-07-07T07:50:49.272Z,95.89
2018-07-07T07:51:49.208Z,96.18
2018-07-07T07:52:49.257Z,96.13
2018-07-07T07:53:49.215Z,96.80
2018-07-07T07:54:49.229Z,96.66
2018-07-07T07:55:49.349Z,96.56
2018-07-07T07:56:49.237Z,96.42
2018-07-07T07:57:49.272Z,96.75
2018-07-07T07:58:49.261Z,96.75
2018-07-07T07:59:49.274Z,97.56
2018-07-07T08:00:49.384Z,97.38
2018-07-07T08:01:49.323Z,96.99
2018-07-07T08:02:49.309Z,96.56
2018-07-07T08:03:49.321Z,96.99
2018-07-07T08:04:49.405Z,96.70
2018-07-07T08:05:49.524Z,96.80
2018-07-07T08:06:49.388Z,96.80
2018-07-07T08:07:49.373Z,96.99
2018-07-07T08:08:49.411Z,97.47
2018-07-07T08:09:49.422Z,97.75
2018-07-07T08:10:49.511Z,97.66
2018-07-07T08:11:49.424Z,97.75
2018-07-07T08:12:49.462Z,98.81
2018-07-07T08:13:49.449Z,98.43
2018-07-07T08:14:49.475Z,98.62
2018-07-07T08:15:49.578Z,98.91
2018-07-07T08:16:49.508Z,98.62
2018-07-07T08:17:49.525Z,98.81
2018-07-07T08:18:49.537Z,98.81
2018-07-07T08:19:49.530Z,99.29
2018-07-07T08:20:49.713Z,98.52
2018-07-07T08:21:49.543Z,98.81
2018-07-07T08:22:49.592Z,99.29
2018-07-07T08:23:49.581Z,99.00
2018-07-07T08:24:49.596Z,99.10
2018-07-07T08:25:49.610Z,99.48
2018-07-07T08:26:49.737Z,99.29
2018-07-07T08:27:49.616Z,98.81
2018-07-07T08:28:49.637Z,98.91
2018-07-07T08:29:49.637Z,98.81
2018-07-07T08:30:49.656Z,98.62
2018-07-07T08:31:49.690Z,98.52
2018-07-07T08:32:49.832Z,98.62
2018-07-07T08:33:49.693Z,98.91
2018-07-07T08:34:49.700Z,98.81
2018-07-07T08:35:49.732Z,98.81
2018-07-07T08:36:49.752Z,98.52
2018-07-07T08:37:49.897Z,98.81
2018-07-07T08:38:49.778Z,98.91
2018-07-07T08:39:49.767Z,98.91
2018-07-07T08:40:49.800Z,98.81
2018-07-07T08:41:49.907Z,98.71
2018-07-07T08:42:49.954Z,98.81
2018-07-07T08:43:49.812Z,98.91
2018-07-07T08:44:49.822Z,98.81
2018-07-07T08:45:49.848Z,98.71
2018-07-07T08:46:49.857Z,98.62
2018-07-07T08:47:49.993Z,98.91
2018-07-07T08:48:49.875Z,99.10
2018-07-07T08:49:49.916Z,98.62
2018-07-07T08:50:49.921Z,98.62
2018-07-07T08:51:49.934Z,98.71
2018-07-07T08:52:50.077Z,98.52
2018-07-07T08:53:49.931Z,98.52
2018-07-07T08:54:49.959Z,98.52
2018-07-07T08:55:49.960Z,98.52
2018-07-07T08:56:49.966Z,98.91
2018-07-07T08:57:50.081Z,98.62
2018-07-07T08:58:50.020Z,98.71
2018-07-07T08:59:50.001Z,98.91
2018-07-07T09:00:50.046Z,98.33
2018-07-07T09:01:50.058Z,98.52
2018-07-07T09:02:50.149Z,98.71
2018-07-07T09:03:50.059Z,98.62
2018-07-07T09:04:50.094Z,98.76
2018-07-07T09:05:50.085Z,99.24
2018-07-07T09:06:50.117Z,98.76
2018-07-07T09:07:50.203Z,99.52
2018-07-07T09:08:50.142Z,99.33
2018-07-07T09:09:50.127Z,99.62
2018-07-07T09:10:50.136Z,99.81
2018-07-07T09:11:50.159Z,99.99
2018-07-07T09:12:50.261Z,99.81
2018-07-07T09:13:50.178Z,99.99
2018-07-07T09:14:50.189Z,99.99
2018-07-07T09:15:50.193Z,99.99
2018-07-07T09:16:50.223Z,99.99
2018-07-07T09:17:50.320Z,99.99
2018-07-07T09:18:50.299Z,99.99
2018-07-07T09:19:50.269Z,99.99
2018-07-07T09:20:50.260Z,99.99
2018-07-07T09:21:50.264Z,99.99
2018-07-07T09:22:50.430Z,99.99
2018-07-07T09:23:50.317Z,99.99
2018-07-07T09:24:50.331Z,99.99
2018-07-07T09:25:50.314Z,99.99
2018-07-07T09:26:50.328Z,99.99
2018-07-07T09:27:50.464Z,99.99
2018-07-07T09:28:50.378Z,99.99
2018-07-07T09:29:50.391Z,99.99
2018-07-07T09:30:50.409Z,99.99
2018-07-07T09:31:50.411Z,99.99
2018-07-07T09:32:50.548Z,99.99
2018-07-07T09:33:50.426Z,99.99
2018-07-07T09:34:50.436Z,99.99
2018-07-07T09:35:50.433Z,99.99
2018-07-07T09:36:50.458Z,99.99
2018-07-07T09:37:50.614Z,99.99
2018-07-07T09:38:50.511Z,99.99
2018-07-07T09:39:50.479Z,99.99
2018-07-07T09:40:50.516Z,99.99
2018-07-07T09:41:50.531Z,99.99
2018-07-07T09:42:50.684Z,99.99
2018-07-07T09:43:50.526Z,99.99
2018-07-07T09:44:50.541Z,99.99
2018-07-07T09:45:50.578Z,99.99
2018-07-07T09:46:50.590Z,99.99
2018-07-07T09:47:50.577Z,99.99
2018-07-07T09:48:50.690Z,99.99
2018-07-07T09:49:50.630Z,99.99
2018-07-07T09:50:50.608Z,99.99
2018-07-07T09:51:50.618Z,99.99
2018-07-07T09:52:50.669Z,99.99
2018-07-07T09:53:50.645Z,99.99
2018-07-07T09:54:50.801Z,99.99
2018-07-07T09:55:50.696Z,99.99
2018-07-07T09:56:50.707Z,99.99
2018-07-07T09:57:50.704Z,99.99
2018-07-07T09:58:50.735Z,99.99
2018-07-07T09:59:50.864Z,99.99
2018-07-07T10:00:50.733Z,99.99
2018-07-07T10:01:50.742Z,99.99
2018-07-07T10:02:50.749Z,99.99
2018-07-07T10:03:50.761Z,99.99
2018-07-07T10:04:50.952Z,99.99
2018-07-07T10:05:50.792Z,99.99
2018-07-07T10:06:50.820Z,99.99
2018-07-07T10:07:50.815Z,99.99
2018-07-07T10:08:50.819Z,99.99
2018-07-07T10:09:50.930Z,99.99
2018-07-07T10:10:50.843Z,99.99
2018-07-07T10:11:50.884Z,99.99
2018-07-07T10:12:50.866Z,99.99
2018-07-07T10:13:50.911Z,99.99
2018-07-07T10:14:50.996Z,99.99
2018-07-07T10:15:50.921Z,99.99
2018-07-07T10:16:50.943Z,99.99
2018-07-07T10:17:50.942Z,99.99
2018-07-07T10:18:50.965Z,99.99
2018-07-07T10:19:51.115Z,99.99
2018-07-07T10:20:50.970Z,99.99
2018-07-07T10:21:50.977Z,99.91
2018-07-07T10:22:51.008Z,99.99
2018-07-07T10:23:51.023Z,99.99
2018-07-07T10:24:51.166Z,99.99
2018-07-07T10:25:51.031Z,99.99
2018-07-07T10:26:51.057Z,99.99
2018-07-07T10:27:51.069Z,99.99
2018-07-07T10:28:51.082Z,99.72
2018-07-07T10:29:51.168Z,99.81
2018-07-07T10:30:51.095Z,99.52
2018-07-07T10:31:51.092Z,99.33
2018-07-07T10:32:51.133Z,99.33
2018-07-07T10:33:51.117Z,98.71
2018-07-07T10:34:51.282Z,98.62
2018-07-07T10:35:51.140Z,98.62
2018-07-07T10:36:51.153Z,98.43
2018-07-07T10:37:51.193Z,98.14
2018-07-07T10:38:51.207Z,98.24
2018-07-07T10:39:51.309Z,97.85
2018-07-07T10:40:51.206Z,97.75
2018-07-07T10:41:51.226Z,97.66
2018-07-07T10:42:51.251Z,97.09
2018-07-07T10:43:51.264Z,96.61
2018-07-07T10:44:51.355Z,96.80
2018-07-07T10:45:51.472Z,95.94
2018-07-07T10:46:51.307Z,95.65
2018-07-07T10:47:51.323Z,95.75
2018-07-07T10:48:51.312Z,95.22
2018-07-07T10:49:51.478Z,95.41
2018-07-07T10:50:51.341Z,94.84
2018-07-07T10:51:51.354Z,94.45
2018-07-07T10:52:51.351Z,93.21
2018-07-07T10:53:51.377Z,93.11
2018-07-07T10:54:51.480Z,92.35
2018-07-07T10:55:51.417Z,91.77
2018-07-07T10:56:51.408Z,91.19
2018-07-07T10:57:51.428Z,90.81
2018-07-07T10:58:51.503Z,90.33
2018-07-07T10:59:51.574Z,90.43
2018-07-07T11:00:51.491Z,90.72
2018-07-07T11:01:51.496Z,90.62
2018-07-07T11:02:51.493Z,89.51
2018-07-07T11:03:51.497Z,88.84
2018-07-07T11:04:51.614Z,88.08
2018-07-07T11:05:51.528Z,87.70
2018-07-07T11:06:51.540Z,86.16
2018-07-07T11:07:51.555Z,85.78
2018-07-07T11:08:51.593Z,85.39
2018-07-07T11:09:51.703Z,85.11
2018-07-07T11:10:51.591Z,84.77
2018-07-07T11:11:51.698Z,84.00
2018-07-07T11:12:51.630Z,83.52
2018-07-07T11:13:51.658Z,82.75
2018-07-07T11:14:51.748Z,81.79
2018-07-07T11:15:51.660Z,80.64
2018-07-07T11:16:51.707Z,80.11
2018-07-07T11:17:51.697Z,78.57
2018-07-07T11:18:51.735Z,77.80
2018-07-07T11:19:51.866Z,78.67
2018-07-07T11:20:51.731Z,78.38
2018-07-07T11:21:51.744Z,77.04
2018-07-07T11:22:51.786Z,76.17
2018-07-07T11:23:51.772Z,74.93
2018-07-07T11:24:51.936Z,75.12
2018-07-07T11:25:51.833Z,74.26
2018-07-07T11:26:51.827Z,73.81
2018-07-07T11:27:51.844Z,73.04
2018-07-07T11:28:51.842Z,71.89
2018-07-07T11:29:52.180Z,70.55
2018-07-07T11:30:51.891Z,69.97
2018-07-07T11:31:51.918Z,68.05
2018-07-07T11:32:51.905Z,67.96
2018-07-07T11:33:51.920Z,67.03
2018-07-07T11:34:52.095Z,65.01
2018-07-07T11:35:51.965Z,65.01
2018-07-07T11:36:51.972Z,64.34
2018-07-07T11:37:52.011Z,61.94
2018-07-07T11:38:52.029Z,62.32
2018-07-07T11:39:52.114Z,62.13
2018-07-07T11:40:52.032Z,60.69
2018-07-07T11:41:52.043Z,60.78
2018-07-07T11:42:52.057Z,60.63
2018-07-07T11:43:52.103Z,60.60
2018-07-07T11:44:52.185Z,60.43
2018-07-07T11:45:52.104Z,58.89
2018-07-07T11:46:52.146Z,57.26
2018-07-07T11:47:52.147Z,56.30
2018-07-07T11:48:52.162Z,55.08
2018-07-07T11:49:52.316Z,53.74
2018-07-07T11:50:52.188Z,54.79
2018-07-07T11:51:52.202Z,54.02
2018-07-07T11:52:52.215Z,54.12
2018-07-07T11:53:52.255Z,54.12
2018-07-07T11:54:52.411Z,52.29
2018-07-07T11:55:52.286Z,50.78
2018-07-07T11:56:52.275Z,49.72
2018-07-07T11:57:52.322Z,49.05
2018-07-07T11:58:52.312Z,47.80
2018-07-07T11:59:52.425Z,47.72
2018-07-07T12:00:52.346Z,46.77
2018-07-07T12:01:52.436Z,46.19
2018-07-07T12:02:52.383Z,45.61
2018-07-07T12:03:52.421Z,45.90
2018-07-07T12:04:52.636Z,44.93
2018-07-07T12:05:52.431Z,44.55
2018-07-07T12:06:52.447Z,44.93
2018-07-07T12:08:00.830Z,44.17
2018-07-07T12:08:52.484Z,44.93
2018-07-07T12:09:52.658Z,45.61
2018-07-07T12:10:52.517Z,45.03
2018-07-07T12:11:52.534Z,43.71
2018-07-07T12:12:52.545Z,44.57
2018-07-07T12:13:52.579Z,43.13
2018-07-07T12:14:52.618Z,42.67
2018-07-07T12:15:52.757Z,42.38
2018-07-07T12:16:52.646Z,41.71
2018-07-07T12:17:52.666Z,40.95
2018-07-07T12:18:52.660Z,40.95
2018-07-07T12:19:52.683Z,40.76
2018-07-07T12:20:52.853Z,40.28
2018-07-07T12:21:52.752Z,39.99
2018-07-07T12:22:52.761Z,39.41
2018-07-07T12:23:52.748Z,38.83
2018-07-07T12:24:52.852Z,38.45
2018-07-07T12:25:52.963Z,38.18
2018-07-07T12:26:52.806Z,37.41
2018-07-07T12:27:52.848Z,36.93
2018-07-07T12:28:52.838Z,37.41
2018-07-07T12:29:52.867Z,37.79
2018-07-07T12:30:53.009Z,37.79
2018-07-07T12:31:52.926Z,37.70
2018-07-07T12:32:52.918Z,37.50
2018-07-07T12:33:52.953Z,37.41
2018-07-07T12:34:52.982Z,37.70
2018-07-07T12:35:53.122Z,37.23
2018-07-07T12:36:53.019Z,36.85
2018-07-07T12:37:53.039Z,37.04
2018-07-07T12:38:53.053Z,37.98
2018-07-07T12:39:53.048Z,38.28
2018-07-07T12:40:53.241Z,38.56
2018-07-07T12:41:53.096Z,38.18
2018-07-07T12:42:53.105Z,38.18
2018-07-07T12:43:53.154Z,38.28
2018-07-07T12:44:53.147Z,37.98
2018-07-07T12:45:53.364Z,38.29
2018-07-07T12:46:53.190Z,38.10
2018-07-07T12:47:53.206Z,36.65
2018-07-07T12:48:53.247Z,36.27
2018-07-07T12:49:53.269Z,37.04
2018-07-07T12:50:53.434Z,37.12
2018-07-07T12:51:53.306Z,38.18
2018-07-07T12:52:53.302Z,38.18
2018-07-07T12:53:53.346Z,36.55